sensor_id;sensor_type;location;lat;lon;timestamp;pressure;altitude;pressure_sealevel;temperature;humidity
74794;BME280;63320;50.768;6.724;2022-12-11T00:00:33;99808.44;;;-0.05;83.78
74794;BME280;63320;50.768;6.724;2022-12-11T00:02:58;99804.59;;;-0.47;83.96
74794;BME280;63320;50.768;6.724;2022-12-11T00:05:23;99802.56;;;-0.15;84.47
74794;BME280;63320;50.768;6.724;2022-12-11T00:07:49;99807.94;;;-0.35;83.37
74794;BME280;63320;50.768;6.724;2022-12-11T00:10:14;99807.72;;;-0.15;84.51
74794;BME280;63320;50.768;6.724;2022-12-11T00:12:41;99806.75;;;-0.06;83.45
74794;BME280;63320;50.768;6.724;2022-12-11T00:15:07;99801.59;;;-0.08;83.03
74794;BME280;63320;50.768;6.724;2022-12-11T00:17:32;99798.22;;;-0.13;83.69
74794;BME280;63320;50.768;6.724;2022-12-11T00:19:58;99802.72;;;-0.32;82.99
74794;BME280;63320;50.768;6.724;2022-12-11T00:22:23;99801.84;;;-0.29;83.91
74794;BME280;63320;50.768;6.724;2022-12-11T00:24:48;99798.44;;;-0.36;83.65
74794;BME280;63320;50.768;6.724;2022-12-11T00:27:14;99799.38;;;-0.40;83.95
74794;BME280;63320;50.768;6.724;2022-12-11T00:29:40;99810.41;;;-0.24;84.13
74794;BME280;63320;50.768;6.724;2022-12-11T00:32:06;99806.91;;;-0.21;83.62
74794;BME280;63320;50.768;6.724;2022-12-11T00:34:31;99793.53;;;-0.59;84.48
74794;BME280;63320;50.768;6.724;2022-12-11T00:36:56;99802.16;;;-0.61;84.50
74794;BME280;63320;50.768;6.724;2022-12-11T00:39:22;99797.91;;;0.12;83.52
74794;BME280;63320;50.768;6.724;2022-12-11T00:41:47;99802.44;;;-0.04;82.69
74794;BME280;63320;50.768;6.724;2022-12-11T00:44:12;99797.16;;;0.05;82.42
74794;BME280;63320;50.768;6.724;2022-12-11T00:46:39;99802.47;;;-0.09;81.89
74794;BME280;63320;50.768;6.724;2022-12-11T00:49:04;99803.44;;;-0.17;83.35
74794;BME280;63320;50.768;6.724;2022-12-11T00:51:30;99795.00;;;-0.36;82.98
74794;BME280;63320;50.768;6.724;2022-12-11T00:53:55;99798.69;;;0.18;82.82
74794;BME280;63320;50.768;6.724;2022-12-11T00:56:21;99799.31;;;-0.34;82.59
74794;BME280;63320;50.768;6.724;2022-12-11T00:58:47;99802.97;;;0.21;82.93
74794;BME280;63320;50.768;6.724;2022-12-11T01:01:16;99797.28;;;0.61;81.13
74794;BME280;63320;50.768;6.724;2022-12-11T01:03:43;99796.94;;;0.22;81.28
74794;BME280;63320;50.768;6.724;2022-12-11T01:06:12;99801.97;;;0.31;81.82
74794;BME280;63320;50.768;6.724;2022-12-11T01:08:37;99795.41;;;0.69;80.78
74794;BME280;63320;50.768;6.724;2022-12-11T01:11:05;99796.28;;;0.68;80.58
74794;BME280;63320;50.768;6.724;2022-12-11T01:13:31;99795.47;;;0.01;80.89
74794;BME280;63320;50.768;6.724;2022-12-11T01:15:56;99794.97;;;0.39;81.84
74794;BME280;63320;50.768;6.724;2022-12-11T01:18:22;99786.72;;;0.10;81.11
74794;BME280;63320;50.768;6.724;2022-12-11T01:20:48;99791.88;;;0.13;81.60
74794;BME280;63320;50.768;6.724;2022-12-11T01:23:14;99792.59;;;0.22;81.87
74794;BME280;63320;50.768;6.724;2022-12-11T01:25:40;99797.47;;;-0.22;81.62
74794;BME280;63320;50.768;6.724;2022-12-11T01:28:06;99798.28;;;-0.20;82.78
74794;BME280;63320;50.768;6.724;2022-12-11T01:30:32;99791.03;;;0.09;81.63
74794;BME280;63320;50.768;6.724;2022-12-11T01:32:57;99797.34;;;-0.12;82.32
74794;BME280;63320;50.768;6.724;2022-12-11T01:35:23;99792.69;;;0.16;82.29
74794;BME280;63320;50.768;6.724;2022-12-11T01:37:49;99801.72;;;-0.18;82.35
74794;BME280;63320;50.768;6.724;2022-12-11T01:40:16;99797.47;;;-0.24;82.06
74794;BME280;63320;50.768;6.724;2022-12-11T01:42:42;99790.41;;;-0.08;83.04
74794;BME280;63320;50.768;6.724;2022-12-11T01:45:28;99797.91;;;0.12;82.47
74794;BME280;63320;50.768;6.724;2022-12-11T01:47:57;99793.09;;;-0.17;82.01
74794;BME280;63320;50.768;6.724;2022-12-11T01:50:24;99785.66;;;-0.46;83.27
74794;BME280;63320;50.768;6.724;2022-12-11T01:52:51;99785.38;;;-0.22;82.42
74794;BME280;63320;50.768;6.724;2022-12-11T01:55:16;99777.78;;;-0.36;82.61
74794;BME280;63320;50.768;6.724;2022-12-11T01:57:44;99775.78;;;-0.09;83.45
74794;BME280;63320;50.768;6.724;2022-12-11T02:00:11;99778.16;;;0.08;81.95
74794;BME280;63320;50.768;6.724;2022-12-11T02:02:37;99770.25;;;-0.56;83.07
74794;BME280;63320;50.768;6.724;2022-12-11T02:05:04;99763.47;;;0.10;83.02
74794;BME280;63320;50.768;6.724;2022-12-11T02:07:32;99759.47;;;-0.16;83.02
74794;BME280;63320;50.768;6.724;2022-12-11T02:10:02;99762.78;;;-0.03;83.23
74794;BME280;63320;50.768;6.724;2022-12-11T02:12:33;99753.91;;;0.16;82.04
74794;BME280;63320;50.768;6.724;2022-12-11T02:15:08;99764.50;;;-0.05;82.11
74794;BME280;63320;50.768;6.724;2022-12-11T02:17:40;99771.56;;;-0.18;82.47
74794;BME280;63320;50.768;6.724;2022-12-11T02:20:10;99767.91;;;-0.02;83.83
74794;BME280;63320;50.768;6.724;2022-12-11T02:22:50;99777.56;;;-0.14;83.59
74794;BME280;63320;50.768;6.724;2022-12-11T02:25:22;99771.50;;;-0.12;83.85
74794;BME280;63320;50.768;6.724;2022-12-11T02:27:52;99771.22;;;0.10;83.75
74794;BME280;63320;50.768;6.724;2022-12-11T02:30:21;99769.56;;;0.04;84.00
74794;BME280;63320;50.768;6.724;2022-12-11T02:32:52;99761.47;;;0.32;83.33
74794;BME280;63320;50.768;6.724;2022-12-11T02:35:20;99762.69;;;0.65;82.44
74794;BME280;63320;50.768;6.724;2022-12-11T02:37:55;99761.28;;;0.44;81.91
74794;BME280;63320;50.768;6.724;2022-12-11T02:40:24;99757.16;;;0.32;82.54
74794;BME280;63320;50.768;6.724;2022-12-11T02:42:51;99759.88;;;0.20;82.56
74794;BME280;63320;50.768;6.724;2022-12-11T02:45:20;99754.66;;;0.26;82.72
74794;BME280;63320;50.768;6.724;2022-12-11T02:47:47;99755.66;;;0.14;82.79
74794;BME280;63320;50.768;6.724;2022-12-11T02:50:17;99756.25;;;0.33;83.03
74794;BME280;63320;50.768;6.724;2022-12-11T02:52:43;99759.38;;;0.57;82.50
74794;BME280;63320;50.768;6.724;2022-12-11T02:55:11;99761.22;;;-0.15;83.35
74794;BME280;63320;50.768;6.724;2022-12-11T02:57:41;99764.63;;;-0.13;84.45
74794;BME280;63320;50.768;6.724;2022-12-11T03:00:08;99751.66;;;-0.11;84.34
74794;BME280;63320;50.768;6.724;2022-12-11T03:02:35;99750.47;;;0.16;83.75
74794;BME280;63320;50.768;6.724;2022-12-11T03:05:01;99750.94;;;0.44;82.97
74794;BME280;63320;50.768;6.724;2022-12-11T03:07:32;99756.88;;;0.50;82.27
74794;BME280;63320;50.768;6.724;2022-12-11T03:09:58;99750.56;;;0.68;81.50
74794;BME280;63320;50.768;6.724;2022-12-11T03:12:27;99754.88;;;0.68;81.32
74794;BME280;63320;50.768;6.724;2022-12-11T03:14:54;99755.47;;;0.85;80.94
74794;BME280;63320;50.768;6.724;2022-12-11T03:17:23;99752.94;;;0.82;81.37
74794;BME280;63320;50.768;6.724;2022-12-11T03:19:54;99751.22;;;0.83;81.34
74794;BME280;63320;50.768;6.724;2022-12-11T03:22:30;99738.41;;;0.73;81.19
74794;BME280;63320;50.768;6.724;2022-12-11T03:25:01;99749.69;;;0.69;81.36
74794;BME280;63320;50.768;6.724;2022-12-11T03:27:32;99749.81;;;0.62;81.31
74794;BME280;63320;50.768;6.724;2022-12-11T03:30:02;99749.91;;;0.54;82.03
74794;BME280;63320;50.768;6.724;2022-12-11T03:32:31;99754.66;;;0.26;82.93
74794;BME280;63320;50.768;6.724;2022-12-11T03:35:04;99757.81;;;-0.20;83.31
74794;BME280;63320;50.768;6.724;2022-12-11T03:37:34;99755.78;;;0.07;83.65
74794;BME280;63320;50.768;6.724;2022-12-11T03:40:04;99757.22;;;0.28;82.43
74794;BME280;63320;50.768;6.724;2022-12-11T03:42:32;99755.41;;;0.33;82.34
74794;BME280;63320;50.768;6.724;2022-12-11T03:44:58;99759.31;;;0.61;81.83
74794;BME280;63320;50.768;6.724;2022-12-11T03:47:26;99760.72;;;0.82;80.95
74794;BME280;63320;50.768;6.724;2022-12-11T03:49:53;99755.31;;;0.39;81.01
74794;BME280;63320;50.768;6.724;2022-12-11T03:52:21;99752.75;;;0.37;82.20
74794;BME280;63320;50.768;6.724;2022-12-11T03:54:48;99750.84;;;0.51;81.65
74794;BME280;63320;50.768;6.724;2022-12-11T03:57:18;99750.88;;;0.48;81.67
74794;BME280;63320;50.768;6.724;2022-12-11T03:59:45;99742.38;;;0.39;82.13
74794;BME280;63320;50.768;6.724;2022-12-11T04:02:10;99749.06;;;0.54;82.12
74794;BME280;63320;50.768;6.724;2022-12-11T04:04:36;99738.56;;;0.66;81.91
74794;BME280;63320;50.768;6.724;2022-12-11T04:07:01;99738.31;;;0.81;81.16
74794;BME280;63320;50.768;6.724;2022-12-11T04:09:28;99731.63;;;0.66;81.35
74794;BME280;63320;50.768;6.724;2022-12-11T04:11:53;99734.00;;;0.78;81.38
74794;BME280;63320;50.768;6.724;2022-12-11T04:14:18;99726.84;;;0.94;80.80
74794;BME280;63320;50.768;6.724;2022-12-11T04:16:44;99733.78;;;0.92;81.17
74794;BME280;63320;50.768;6.724;2022-12-11T04:19:09;99736.19;;;1.03;80.75
74794;BME280;63320;50.768;6.724;2022-12-11T04:21:35;99741.81;;;0.77;81.53
74794;BME280;63320;50.768;6.724;2022-12-11T04:24:00;99727.28;;;0.68;82.05
74794;BME280;63320;50.768;6.724;2022-12-11T04:26:27;99723.06;;;0.63;82.34
74794;BME280;63320;50.768;6.724;2022-12-11T04:28:52;99727.09;;;0.81;82.02
74794;BME280;63320;50.768;6.724;2022-12-11T04:31:19;99724.72;;;0.67;81.54
74794;BME280;63320;50.768;6.724;2022-12-11T04:33:45;99724.88;;;0.58;81.84
74794;BME280;63320;50.768;6.724;2022-12-11T04:36:11;99722.06;;;0.70;81.69
74794;BME280;63320;50.768;6.724;2022-12-11T04:38:37;99725.38;;;0.81;81.54
74794;BME280;63320;50.768;6.724;2022-12-11T04:41:04;99726.91;;;0.90;81.57
74794;BME280;63320;50.768;6.724;2022-12-11T04:43:30;99721.75;;;0.90;80.93
74794;BME280;63320;50.768;6.724;2022-12-11T04:46:00;99722.53;;;0.96;80.85
74794;BME280;63320;50.768;6.724;2022-12-11T04:48:25;99725.22;;;0.89;80.97
74794;BME280;63320;50.768;6.724;2022-12-11T04:50:51;99718.94;;;1.03;80.60
74794;BME280;63320;50.768;6.724;2022-12-11T04:53:16;99719.13;;;0.93;80.85
74794;BME280;63320;50.768;6.724;2022-12-11T04:55:41;99723.25;;;1.03;80.56
74794;BME280;63320;50.768;6.724;2022-12-11T04:58:07;99721.75;;;0.91;79.96
74794;BME280;63320;50.768;6.724;2022-12-11T05:00:33;99725.97;;;0.97;80.49
74794;BME280;63320;50.768;6.724;2022-12-11T05:02:59;99720.72;;;1.00;80.46
74794;BME280;63320;50.768;6.724;2022-12-11T05:05:24;99712.97;;;0.98;80.87
74794;BME280;63320;50.768;6.724;2022-12-11T05:07:49;99706.47;;;0.76;80.83
74794;BME280;63320;50.768;6.724;2022-12-11T05:10:15;99711.75;;;0.68;81.71
74794;BME280;63320;50.768;6.724;2022-12-11T05:12:40;99716.03;;;0.71;81.77
74794;BME280;63320;50.768;6.724;2022-12-11T05:15:06;99718.09;;;0.50;82.20
74794;BME280;63320;50.768;6.724;2022-12-11T05:17:33;99706.66;;;0.64;82.28
74794;BME280;63320;50.768;6.724;2022-12-11T05:19:58;99710.69;;;0.82;81.76
74794;BME280;63320;50.768;6.724;2022-12-11T05:22:24;99717.56;;;0.83;81.69
74794;BME280;63320;50.768;6.724;2022-12-11T05:24:49;99708.19;;;0.77;81.08
74794;BME280;63320;50.768;6.724;2022-12-11T05:27:14;99716.09;;;0.68;81.72
74794;BME280;63320;50.768;6.724;2022-12-11T05:29:40;99709.44;;;0.50;82.19
74794;BME280;63320;50.768;6.724;2022-12-11T05:32:05;99715.09;;;0.76;81.74
74794;BME280;63320;50.768;6.724;2022-12-11T05:34:32;99718.19;;;0.95;81.09
74794;BME280;63320;50.768;6.724;2022-12-11T05:36:57;99713.25;;;0.83;80.52
74794;BME280;63320;50.768;6.724;2022-12-11T05:39:23;99719.16;;;0.91;80.63
74794;BME280;63320;50.768;6.724;2022-12-11T05:41:48;99720.00;;;0.90;80.70
74794;BME280;63320;50.768;6.724;2022-12-11T05:44:13;99713.47;;;0.71;81.28
74794;BME280;63320;50.768;6.724;2022-12-11T05:46:39;99710.69;;;0.80;81.34
74794;BME280;63320;50.768;6.724;2022-12-11T05:49:04;99710.56;;;0.88;81.24
74794;BME280;63320;50.768;6.724;2022-12-11T05:51:31;99701.78;;;0.98;80.41
74794;BME280;63320;50.768;6.724;2022-12-11T05:53:57;99704.41;;;0.96;80.46
74794;BME280;63320;50.768;6.724;2022-12-11T05:56:23;99705.94;;;1.07;80.34
74794;BME280;63320;50.768;6.724;2022-12-11T05:58:50;99705.88;;;1.10;80.09
74794;BME280;63320;50.768;6.724;2022-12-11T06:01:17;99706.63;;;1.15;80.05
74794;BME280;63320;50.768;6.724;2022-12-11T06:03:43;99705.06;;;1.08;80.13
74794;BME280;63320;50.768;6.724;2022-12-11T06:06:09;99698.34;;;0.97;80.29
74794;BME280;63320;50.768;6.724;2022-12-11T06:08:36;99697.53;;;0.94;80.76
74794;BME280;63320;50.768;6.724;2022-12-11T06:11:02;99696.63;;;0.95;80.83
74794;BME280;63320;50.768;6.724;2022-12-11T06:13:28;99702.47;;;1.08;80.19
74794;BME280;63320;50.768;6.724;2022-12-11T06:15:53;99695.78;;;0.96;80.27
74794;BME280;63320;50.768;6.724;2022-12-11T06:18:19;99704.31;;;0.99;80.36
74794;BME280;63320;50.768;6.724;2022-12-11T06:20:44;99694.97;;;0.92;79.90
74794;BME280;63320;50.768;6.724;2022-12-11T06:23:09;99692.38;;;0.92;80.45
74794;BME280;63320;50.768;6.724;2022-12-11T06:25:38;99693.81;;;1.09;80.06
74794;BME280;63320;50.768;6.724;2022-12-11T06:28:04;99689.75;;;0.94;79.38
74794;BME280;63320;50.768;6.724;2022-12-11T06:30:29;99685.22;;;1.07;79.92
74794;BME280;63320;50.768;6.724;2022-12-11T06:32:54;99693.84;;;1.07;80.17
74794;BME280;63320;50.768;6.724;2022-12-11T06:35:20;99696.28;;;1.15;79.74
74794;BME280;63320;50.768;6.724;2022-12-11T06:37:45;99693.00;;;1.05;80.09
74794;BME280;63320;50.768;6.724;2022-12-11T06:40:10;99692.97;;;1.08;79.72
74794;BME280;63320;50.768;6.724;2022-12-11T06:42:37;99695.63;;;1.03;79.73
74794;BME280;63320;50.768;6.724;2022-12-11T06:45:03;99694.19;;;0.87;80.22
74794;BME280;63320;50.768;6.724;2022-12-11T06:47:29;99696.63;;;0.96;80.49
74794;BME280;63320;50.768;6.724;2022-12-11T06:49:55;99696.28;;;1.15;79.96
74794;BME280;63320;50.768;6.724;2022-12-11T06:52:21;99705.09;;;1.06;79.63
74794;BME280;63320;50.768;6.724;2022-12-11T06:54:47;99709.50;;;0.99;80.10
74794;BME280;63320;50.768;6.724;2022-12-11T06:57:13;99710.28;;;1.06;79.56
74794;BME280;63320;50.768;6.724;2022-12-11T06:59:39;99710.38;;;0.98;79.71
74794;BME280;63320;50.768;6.724;2022-12-11T07:02:05;99704.25;;;1.06;79.77
74794;BME280;63320;50.768;6.724;2022-12-11T07:04:31;99701.81;;;0.95;79.88
74794;BME280;63320;50.768;6.724;2022-12-11T07:06:56;99709.44;;;1.04;79.41
74794;BME280;63320;50.768;6.724;2022-12-11T07:09:22;99705.94;;;1.05;79.06
74794;BME280;63320;50.768;6.724;2022-12-11T07:11:48;99711.31;;;0.96;79.23
74794;BME280;63320;50.768;6.724;2022-12-11T07:14:13;99707.75;;;1.01;78.97
74794;BME280;63320;50.768;6.724;2022-12-11T07:16:40;99703.63;;;0.91;79.49
74794;BME280;63320;50.768;6.724;2022-12-11T07:19:05;99701.88;;;0.90;79.23
74794;BME280;63320;50.768;6.724;2022-12-11T07:21:31;99702.13;;;0.78;79.95
74794;BME280;63320;50.768;6.724;2022-12-11T07:23:56;99700.31;;;0.83;79.52
74794;BME280;63320;50.768;6.724;2022-12-11T07:26:22;99699.59;;;0.73;79.50
74794;BME280;63320;50.768;6.724;2022-12-11T07:28:48;99701.94;;;0.89;79.80
74794;BME280;63320;50.768;6.724;2022-12-11T07:31:16;99700.81;;;1.03;79.23
74794;BME280;63320;50.768;6.724;2022-12-11T07:33:43;99706.28;;;0.85;78.80
74794;BME280;63320;50.768;6.724;2022-12-11T07:36:10;99702.84;;;0.85;79.36
74794;BME280;63320;50.768;6.724;2022-12-11T07:38:36;99707.22;;;0.83;79.58
74794;BME280;63320;50.768;6.724;2022-12-11T07:41:02;99702.50;;;1.04;79.03
74794;BME280;63320;50.768;6.724;2022-12-11T07:43:28;99703.50;;;0.97;78.55
74794;BME280;63320;50.768;6.724;2022-12-11T07:45:53;99710.19;;;1.11;78.28
74794;BME280;63320;50.768;6.724;2022-12-11T07:48:18;99706.56;;;1.19;78.00
74794;BME280;63320;50.768;6.724;2022-12-11T07:50:45;99707.69;;;1.04;78.14
74794;BME280;63320;50.768;6.724;2022-12-11T07:53:10;99709.78;;;0.84;79.17
74794;BME280;63320;50.768;6.724;2022-12-11T07:55:36;99706.47;;;0.76;79.64
74794;BME280;63320;50.768;6.724;2022-12-11T07:58:01;99700.31;;;0.83;79.89
74794;BME280;63320;50.768;6.724;2022-12-11T08:00:26;99706.06;;;1.00;79.02
74794;BME280;63320;50.768;6.724;2022-12-11T08:02:52;99700.88;;;1.00;78.79
74794;BME280;63320;50.768;6.724;2022-12-11T08:05:17;99703.41;;;1.03;78.41
74794;BME280;63320;50.768;6.724;2022-12-11T08:07:44;99694.69;;;1.08;78.38
74794;BME280;63320;50.768;6.724;2022-12-11T08:10:09;99692.22;;;1.01;78.81
74794;BME280;63320;50.768;6.724;2022-12-11T08:12:34;99693.78;;;1.12;79.43
74794;BME280;63320;50.768;6.724;2022-12-11T08:15:00;99691.72;;;1.29;78.60
74794;BME280;63320;50.768;6.724;2022-12-11T08:17:26;99699.16;;;0.99;78.73
74794;BME280;63320;50.768;6.724;2022-12-11T08:19:51;99689.72;;;0.97;79.10
74794;BME280;63320;50.768;6.724;2022-12-11T08:22:16;99691.34;;;1.02;79.03
74794;BME280;63320;50.768;6.724;2022-12-11T08:24:43;99680.09;;;1.03;79.58
74794;BME280;63320;50.768;6.724;2022-12-11T08:27:08;99681.81;;;1.04;79.16
74794;BME280;63320;50.768;6.724;2022-12-11T08:29:34;99686.16;;;1.02;79.23
74794;BME280;63320;50.768;6.724;2022-12-11T08:32:00;99686.78;;;1.15;79.30
74794;BME280;63320;50.768;6.724;2022-12-11T08:34:25;99685.00;;;1.19;78.55
74794;BME280;63320;50.768;6.724;2022-12-11T08:36:51;99693.97;;;0.99;79.41
74794;BME280;63320;50.768;6.724;2022-12-11T08:39:16;99695.78;;;0.94;79.57
74794;BME280;63320;50.768;6.724;2022-12-11T08:41:43;99692.13;;;1.08;79.07
74794;BME280;63320;50.768;6.724;2022-12-11T08:44:11;99696.56;;;0.99;79.87
74794;BME280;63320;50.768;6.724;2022-12-11T08:46:36;99702.50;;;1.04;78.83
74794;BME280;63320;50.768;6.724;2022-12-11T08:49:02;99694.66;;;1.11;79.54
74794;BME280;63320;50.768;6.724;2022-12-11T08:51:29;99704.06;;;1.15;79.00
74794;BME280;63320;50.768;6.724;2022-12-11T08:53:56;99705.03;;;1.09;78.79
74794;BME280;63320;50.768;6.724;2022-12-11T08:56:22;99702.38;;;1.12;78.99
74794;BME280;63320;50.768;6.724;2022-12-11T08:58:50;99708.75;;;0.93;78.83
74794;BME280;63320;50.768;6.724;2022-12-11T09:01:17;99711.16;;;1.03;79.93
74794;BME280;63320;50.768;6.724;2022-12-11T09:03:43;99705.66;;;1.22;79.16
74794;BME280;63320;50.768;6.724;2022-12-11T09:06:10;99700.41;;;1.25;79.23
74794;BME280;63320;50.768;6.724;2022-12-11T09:08:36;99709.50;;;0.99;79.24
74794;BME280;63320;50.768;6.724;2022-12-11T09:11:02;99705.94;;;1.07;79.83
74794;BME280;63320;50.768;6.724;2022-12-11T09:13:28;99708.53;;;1.07;79.64
74794;BME280;63320;50.768;6.724;2022-12-11T09:15:54;99703.69;;;0.87;79.81
74794;BME280;63320;50.768;6.724;2022-12-11T09:18:20;99704.03;;;1.16;79.34
74794;BME280;63320;50.768;6.724;2022-12-11T09:20:45;99702.34;;;1.14;79.42
74794;BME280;63320;50.768;6.724;2022-12-11T09:23:10;99705.00;;;1.11;79.81
74794;BME280;63320;50.768;6.724;2022-12-11T09:25:38;99701.91;;;1.38;79.21
74794;BME280;63320;50.768;6.724;2022-12-11T09:28:04;99703.72;;;1.33;78.41
74794;BME280;63320;50.768;6.724;2022-12-11T09:30:29;99707.88;;;1.40;78.59
74794;BME280;63320;50.768;6.724;2022-12-11T09:32:56;99702.06;;;1.31;78.88
74794;BME280;63320;50.768;6.724;2022-12-11T09:35:21;99703.78;;;1.30;78.77
74794;BME280;63320;50.768;6.724;2022-12-11T09:37:46;99703.31;;;1.08;79.53
74794;BME280;63320;50.768;6.724;2022-12-11T09:40:12;99709.06;;;1.24;79.64
74794;BME280;63320;50.768;6.724;2022-12-11T09:42:46;99699.31;;;1.38;79.18
74794;BME280;63320;50.768;6.724;2022-12-11T09:45:14;99701.09;;;1.35;78.43
74794;BME280;63320;50.768;6.724;2022-12-11T09:47:43;99703.97;;;1.21;79.26
74794;BME280;63320;50.768;6.724;2022-12-11T09:50:14;99696.84;;;1.32;79.26
74794;BME280;63320;50.768;6.724;2022-12-11T09:52:50;99695.00;;;1.37;79.04
74794;BME280;63320;50.768;6.724;2022-12-11T09:55:19;99680.47;;;1.30;79.25
74794;BME280;63320;50.768;6.724;2022-12-11T09:57:53;99689.75;;;1.40;79.42
74794;BME280;63320;50.768;6.724;2022-12-11T10:00:25;99688.72;;;1.49;79.26
74794;BME280;63320;50.768;6.724;2022-12-11T10:03:14;99681.69;;;1.57;78.77
74794;BME280;63320;50.768;6.724;2022-12-11T10:05:52;99673.66;;;1.24;79.01
74794;BME280;63320;50.768;6.724;2022-12-11T10:08:24;99681.31;;;1.32;79.91
74794;BME280;63320;50.768;6.724;2022-12-11T10:10:59;99679.34;;;1.43;78.84
74794;BME280;63320;50.768;6.724;2022-12-11T10:13:34;99683.16;;;1.24;79.72
74794;BME280;63320;50.768;6.724;2022-12-11T10:16:10;99676.22;;;1.27;79.85
74794;BME280;63320;50.768;6.724;2022-12-11T10:18:40;99674.59;;;1.22;80.22
74794;BME280;63320;50.768;6.724;2022-12-11T10:21:08;99667.63;;;1.24;80.23
74794;BME280;63320;50.768;6.724;2022-12-11T10:23:39;99669.16;;;1.34;80.04
74794;BME280;63320;50.768;6.724;2022-12-11T10:26:11;99667.44;;;1.35;79.59
74794;BME280;63320;50.768;6.724;2022-12-11T10:28:38;99660.16;;;1.53;79.17
74794;BME280;63320;50.768;6.724;2022-12-11T10:31:10;99664.25;;;1.64;77.88
74794;BME280;63320;50.768;6.724;2022-12-11T10:33:43;99658.25;;;1.62;78.60
74794;BME280;63320;50.768;6.724;2022-12-11T10:36:18;99647.75;;;1.68;78.87
74794;BME280;63320;50.768;6.724;2022-12-11T10:38:45;99650.50;;;1.60;78.94
74794;BME280;63320;50.768;6.724;2022-12-11T10:41:12;99649.53;;;1.66;78.55
74794;BME280;63320;50.768;6.724;2022-12-11T10:43:39;99643.47;;;1.67;79.28
74794;BME280;63320;50.768;6.724;2022-12-11T10:46:12;99641.81;;;1.63;79.63
74794;BME280;63320;50.768;6.724;2022-12-11T10:48:44;99635.09;;;1.54;79.22
74794;BME280;63320;50.768;6.724;2022-12-11T10:51:10;99637.44;;;1.65;79.05
74794;BME280;63320;50.768;6.724;2022-12-11T10:53:37;99639.66;;;1.83;78.60
74794;BME280;63320;50.768;6.724;2022-12-11T10:56:02;99638.38;;;1.62;78.56
74794;BME280;63320;50.768;6.724;2022-12-11T10:58:29;99636.25;;;1.81;78.60
74794;BME280;63320;50.768;6.724;2022-12-11T11:01:02;99629.00;;;1.57;78.02
74794;BME280;63320;50.768;6.724;2022-12-11T11:03:29;99630.75;;;1.56;78.10
74794;BME280;63320;50.768;6.724;2022-12-11T11:06:01;99630.75;;;1.95;78.00
74794;BME280;63320;50.768;6.724;2022-12-11T11:08:38;99627.66;;;1.79;77.89
74794;BME280;63320;50.768;6.724;2022-12-11T11:11:05;99627.53;;;1.43;77.05
74794;BME280;63320;50.768;6.724;2022-12-11T11:13:31;99629.94;;;1.52;77.65
74794;BME280;63320;50.768;6.724;2022-12-11T11:16:01;99625.56;;;1.54;77.99
74794;BME280;63320;50.768;6.724;2022-12-11T11:18:29;99625.25;;;1.70;76.77
74794;BME280;63320;50.768;6.724;2022-12-11T11:20:55;99628.81;;;1.66;76.33
74794;BME280;63320;50.768;6.724;2022-12-11T11:23:21;99627.72;;;1.76;77.24
74794;BME280;63320;50.768;6.724;2022-12-11T11:25:49;99625.38;;;1.64;77.42
74794;BME280;63320;50.768;6.724;2022-12-11T11:28:18;99618.59;;;1.58;77.08
74794;BME280;63320;50.768;6.724;2022-12-11T11:30:55;99618.97;;;1.80;76.96
74794;BME280;63320;50.768;6.724;2022-12-11T11:33:21;99608.31;;;1.94;76.76
74794;BME280;63320;50.768;6.724;2022-12-11T11:35:51;99614.13;;;1.66;76.47
74794;BME280;63320;50.768;6.724;2022-12-11T11:38:18;99612.78;;;1.86;75.99
74794;BME280;63320;50.768;6.724;2022-12-11T11:40:48;99602.56;;;1.79;76.92
74794;BME280;63320;50.768;6.724;2022-12-11T11:43:27;99605.00;;;1.87;77.14
74794;BME280;63320;50.768;6.724;2022-12-11T11:45:59;99596.19;;;1.96;76.23
74794;BME280;63320;50.768;6.724;2022-12-11T11:48:34;99589.63;;;1.79;75.91
74794;BME280;63320;50.768;6.724;2022-12-11T11:51:11;99585.44;;;1.74;76.42
74794;BME280;63320;50.768;6.724;2022-12-11T11:53:38;99596.28;;;1.90;76.72
74794;BME280;63320;50.768;6.724;2022-12-11T11:56:09;99594.34;;;2.01;76.46
74794;BME280;63320;50.768;6.724;2022-12-11T11:58:44;99577.78;;;2.06;76.16
74794;BME280;63320;50.768;6.724;2022-12-11T12:01:14;99580.78;;;1.88;75.95
74794;BME280;63320;50.768;6.724;2022-12-11T12:03:40;99586.28;;;1.74;75.17
74794;BME280;63320;50.768;6.724;2022-12-11T12:06:09;99584.81;;;2.00;74.69
74794;BME280;63320;50.768;6.724;2022-12-11T12:08:45;99581.63;;;1.89;75.10
74794;BME280;63320;50.768;6.724;2022-12-11T12:11:22;99587.69;;;2.25;75.06
74794;BME280;63320;50.768;6.724;2022-12-11T12:13:59;99588.91;;;2.10;74.90
74794;BME280;63320;50.768;6.724;2022-12-11T12:19:19;99595.38;;;1.92;73.34
74794;BME280;63320;50.768;6.724;2022-12-11T12:21:50;99587.41;;;2.01;74.87
74794;BME280;63320;50.768;6.724;2022-12-11T12:24:25;99585.47;;;2.10;74.69
74794;BME280;63320;50.768;6.724;2022-12-11T12:26:57;99585.28;;;2.17;73.93
74794;BME280;63320;50.768;6.724;2022-12-11T12:29:42;99576.41;;;2.27;74.26
74794;BME280;63320;50.768;6.724;2022-12-11T12:32:16;99575.31;;;2.00;73.54
74794;BME280;63320;50.768;6.724;2022-12-11T12:34:56;99581.47;;;1.96;73.89
74794;BME280;63320;50.768;6.724;2022-12-11T12:37:36;99571.91;;;1.98;74.29
74794;BME280;63320;50.768;6.724;2022-12-11T12:40:13;99581.38;;;2.01;74.08
74794;BME280;63320;50.768;6.724;2022-12-11T12:42:50;99573.28;;;2.13;75.14
74794;BME280;63320;50.768;6.724;2022-12-11T12:45:25;99574.28;;;2.07;74.02
74794;BME280;63320;50.768;6.724;2022-12-11T12:47:52;99571.47;;;2.17;74.53
74794;BME280;63320;50.768;6.724;2022-12-11T12:50:19;99575.97;;;2.08;74.43
74794;BME280;63320;50.768;6.724;2022-12-11T12:52:46;99577.13;;;1.97;73.03
74794;BME280;63320;50.768;6.724;2022-12-11T12:55:22;99582.09;;;1.69;73.56
74794;BME280;63320;50.768;6.724;2022-12-11T12:57:49;99583.47;;;1.84;74.16
74794;BME280;63320;50.768;6.724;2022-12-11T13:00:29;99574.38;;;2.03;73.81
74794;BME280;63320;50.768;6.724;2022-12-11T13:02:55;99582.00;;;2.09;73.57
74794;BME280;63320;50.768;6.724;2022-12-11T13:05:23;99567.66;;;1.94;72.68
74794;BME280;63320;50.768;6.724;2022-12-11T13:07:49;99570.25;;;1.94;73.63
74794;BME280;63320;50.768;6.724;2022-12-11T13:10:26;99565.44;;;2.15;73.99
74794;BME280;63320;50.768;6.724;2022-12-11T13:12:52;99566.88;;;1.92;72.55
74794;BME280;63320;50.768;6.724;2022-12-11T13:15:40;99564.75;;;2.08;73.33